Weirton, West Virginia
Current Conditions -  °F | °C
As of 5:01 AM on Friday 19 Dec 2014 (Local Time) from KHLG Reporting Station
Haze Haze  
Wind Chill: 19°   Ceiling: 2700
Heat Index: 27°   Visibility: 6mi
Dew Point: 23°   Wind: 7mph
Humidity: 85%   Direction: 250°WSW
Pressure: 30.16"   Gusts: NA
Location:  40.42°N, 80.59°W
Report Text: KHLG 191001Z AUTO 25006KT 6SM BR SCT008 OVC027 M03/M05 A3016 RMK AO2 T10281050
Loading
Personal Weather Stations






























Interactive Weather Map New forecast layout! Learn more

10-Day Weather Forecast

Advertisements
Track Severe Weather on mobile